createdAt,value
2017-08-01T00:00:07.747Z,4.87
2017-08-01T00:02:36.016Z,5.05
2017-08-01T00:05:04.316Z,5.37
2017-08-01T00:07:32.584Z,4.82
2017-08-01T00:10:00.844Z,5.15
2017-08-01T00:12:29.215Z,5.10
2017-08-01T00:17:21.308Z,5.80
2017-08-01T00:19:49.711Z,5.00
2017-08-01T00:22:17.991Z,4.72
2017-08-01T00:24:47.025Z,5.30
2017-08-01T00:27:15.335Z,4.40
2017-08-01T00:29:44.367Z,5.10
2017-08-01T00:32:12.627Z,4.43
2017-08-01T00:34:40.948Z,4.95
2017-08-01T00:37:09.216Z,4.93
2017-08-01T00:39:37.480Z,5.37
2017-08-01T00:42:05.787Z,5.60
2017-08-01T00:44:34.042Z,5.32
2017-08-01T00:47:02.303Z,5.43
2017-08-01T00:49:30.616Z,4.72
2017-08-01T00:51:58.880Z,5.10
2017-08-01T00:54:27.143Z,4.85
2017-08-01T00:56:55.447Z,5.32
2017-08-01T00:59:23.720Z,5.20
2017-08-01T01:01:51.992Z,4.78
2017-08-01T01:04:20.300Z,4.80
2017-08-01T01:06:48.626Z,5.68
2017-08-01T01:09:17.704Z,5.90
2017-08-01T01:11:46.784Z,5.85
2017-08-01T01:14:15.813Z,5.10
2017-08-01T01:16:44.076Z,5.25
2017-08-01T01:19:12.475Z,5.37
2017-08-01T01:21:40.744Z,4.20
2017-08-01T01:24:09.007Z,7.00
2017-08-01T01:26:38.096Z,4.93
2017-08-01T01:29:07.148Z,5.15
2017-08-01T01:31:35.418Z,4.57
2017-08-01T01:34:04.091Z,4.35
2017-08-01T01:36:32.380Z,4.15
2017-08-01T01:39:00.644Z,3.95
2017-08-01T01:41:29.080Z,4.07
2017-08-01T01:43:58.124Z,4.10
2017-08-01T01:46:26.388Z,4.32
2017-08-01T01:48:54.711Z,4.45
2017-08-01T01:51:22.980Z,3.90
2017-08-01T01:53:51.248Z,5.68
2017-08-01T01:56:19.575Z,4.28
2017-08-01T01:58:47.903Z,4.78
2017-08-01T02:01:16.176Z,4.37
2017-08-01T02:03:44.467Z,4.20
2017-08-01T02:06:13.500Z,3.60
2017-08-01T02:08:41.771Z,4.32
2017-08-01T02:11:10.076Z,3.85
2017-08-01T02:13:38.347Z,4.28
2017-08-01T02:16:06.608Z,4.15
2017-08-01T02:18:34.996Z,4.60
2017-08-01T02:21:03.268Z,4.47
2017-08-01T02:23:31.523Z,4.28
2017-08-01T02:25:59.823Z,4.05
2017-08-01T02:28:28.100Z,4.10
2017-08-01T02:30:57.120Z,4.00
2017-08-01T02:33:25.423Z,3.97
2017-08-01T02:35:53.692Z,4.90
2017-08-01T02:38:22.723Z,3.95
2017-08-01T02:40:51.033Z,3.55
2017-08-01T02:43:20.064Z,3.70
2017-08-01T02:45:48.336Z,3.87
2017-08-01T02:48:16.648Z,4.05
2017-08-01T02:50:46.043Z,3.62
2017-08-01T02:53:14.424Z,4.20
2017-08-01T02:55:42.728Z,3.40
2017-08-01T02:58:11.000Z,4.10
2017-08-01T03:00:39.256Z,4.10
2017-08-01T03:03:07.560Z,4.03
2017-08-01T03:05:35.819Z,3.75
2017-08-01T03:08:04.087Z,3.83
2017-08-01T03:10:32.394Z,3.25
2017-08-01T03:13:00.664Z,3.22
2017-08-01T03:15:28.936Z,3.58
2017-08-01T03:17:58.011Z,3.95
2017-08-01T03:20:26.271Z,3.90
2017-08-01T03:22:54.532Z,4.05
2017-08-01T03:25:22.831Z,3.60
2017-08-01T03:27:51.100Z,3.45
2017-08-01T03:30:19.365Z,4.40
2017-08-01T03:32:47.673Z,4.18
2017-08-01T03:35:15.944Z,4.37
2017-08-01T03:37:44.971Z,3.85
2017-08-01T03:40:13.272Z,4.00
2017-08-01T03:42:41.535Z,4.00
2017-08-01T03:45:09.808Z,3.83
2017-08-01T03:47:38.995Z,4.37
2017-08-01T03:50:08.024Z,4.37
2017-08-01T03:52:36.287Z,4.55
2017-08-01T03:55:04.608Z,4.18
2017-08-01T03:57:32.876Z,4.40
2017-08-01T04:00:01.140Z,3.67
2017-08-01T04:02:29.431Z,3.87
2017-08-01T04:04:57.698Z,3.50
2017-08-01T04:07:25.963Z,4.78
2017-08-01T04:09:54.272Z,3.70
2017-08-01T04:12:23.303Z,4.50
2017-08-01T04:14:51.564Z,3.10
2017-08-01T04:17:19.951Z,3.95
2017-08-01T04:19:48.220Z,3.53
2017-08-01T04:22:16.484Z,3.15
2017-08-01T04:24:45.566Z,3.50
2017-08-01T04:27:14.592Z,3.85
2017-08-01T04:29:42.865Z,3.95
2017-08-01T04:32:11.156Z,3.78
2017-08-01T04:34:39.423Z,3.50
2017-08-01T04:37:08.455Z,3.60
2017-08-01T04:39:36.752Z,3.20
2017-08-01T04:42:05.021Z,3.80
2017-08-01T04:44:45.209Z,4.47
2017-08-01T04:47:13.466Z,4.10
2017-08-01T04:49:41.753Z,4.95
2017-08-01T04:52:10.161Z,3.60
2017-08-01T04:54:39.376Z,3.83
2017-08-01T04:57:07.670Z,3.83
2017-08-01T04:59:35.972Z,3.10
2017-08-01T05:02:05.004Z,3.92
2017-08-01T05:04:33.263Z,3.20
2017-08-01T05:07:01.563Z,3.87
2017-08-01T05:09:30.604Z,3.22
2017-08-01T05:11:58.859Z,3.08
2017-08-01T05:14:27.171Z,3.75
2017-08-01T05:16:56.191Z,3.62
2017-08-01T05:19:24.451Z,3.70
2017-08-01T05:21:52.794Z,3.65
2017-08-01T05:24:21.795Z,3.37
2017-08-01T05:26:50.055Z,3.40
2017-08-01T05:29:18.357Z,3.15
2017-08-01T05:31:46.629Z,3.85
2017-08-01T05:34:15.651Z,3.67
2017-08-01T05:36:43.959Z,3.42
2017-08-01T05:39:12.235Z,3.17
2017-08-01T05:41:41.255Z,5.35
2017-08-01T05:44:09.564Z,3.25
2017-08-01T05:46:37.823Z,3.35
2017-08-01T05:49:06.088Z,3.72
2017-08-01T05:51:34.375Z,2.97
2017-08-01T05:54:02.644Z,3.55
2017-08-01T05:56:30.945Z,3.75
2017-08-01T05:58:59.224Z,3.22
2017-08-01T06:01:27.483Z,3.10
2017-08-01T06:03:55.761Z,2.12
2017-08-01T06:06:24.823Z,3.65
2017-08-01T06:08:53.100Z,3.10
2017-08-01T06:11:21.355Z,3.72
2017-08-01T06:13:50.440Z,3.40
2017-08-01T06:16:19.476Z,3.80
2017-08-01T06:18:47.756Z,3.15
2017-08-01T06:21:16.063Z,2.55
2017-08-01T06:23:44.329Z,3.10
2017-08-01T06:26:12.596Z,3.15
2017-08-01T06:28:41.224Z,3.17
2017-08-01T06:31:10.260Z,2.33
2017-08-01T06:33:38.536Z,3.08
2017-08-01T06:36:06.836Z,3.20
2017-08-01T06:38:35.874Z,3.17
2017-08-01T06:41:04.148Z,3.55
2017-08-01T06:43:32.455Z,2.58
2017-08-01T06:46:00.728Z,2.45
2017-08-01T06:48:28.995Z,3.30
2017-08-01T06:50:57.283Z,3.40
2017-08-01T06:53:25.556Z,3.83
2017-08-01T06:55:53.819Z,2.80
2017-08-01T06:58:22.131Z,2.33
2017-08-01T07:00:50.409Z,3.12
2017-08-01T07:03:18.676Z,2.53
2017-08-01T07:05:46.975Z,2.75
2017-08-01T07:08:15.256Z,2.60
2017-08-01T07:10:44.287Z,2.90
2017-08-01T07:13:12.604Z,3.03
2017-08-01T07:15:40.867Z,2.87
2017-08-01T07:18:09.144Z,3.15
2017-08-01T07:20:37.451Z,2.40
2017-08-01T07:23:05.713Z,2.80
2017-08-01T07:25:33.984Z,3.03
2017-08-01T07:28:02.295Z,2.70
2017-08-01T07:30:30.558Z,2.67
2017-08-01T07:32:58.827Z,2.87
2017-08-01T07:35:27.136Z,3.00
2017-08-01T07:37:56.168Z,2.95
2017-08-01T07:40:24.431Z,3.62
2017-08-01T07:42:52.756Z,3.60
2017-08-01T07:45:21.023Z,3.10
2017-08-01T07:47:49.291Z,3.10
2017-08-01T07:50:17.720Z,2.45
2017-08-01T07:52:45.992Z,2.83
2017-08-01T07:55:15.027Z,2.83
2017-08-01T07:57:43.325Z,2.85
2017-08-01T08:00:12.365Z,2.70
2017-08-01T08:02:40.631Z,3.00
2017-08-01T08:05:08.951Z,2.60
2017-08-01T08:07:37.219Z,3.15
2017-08-01T08:10:05.496Z,3.05
2017-08-01T08:12:33.922Z,3.08
2017-08-01T08:15:02.955Z,3.15
2017-08-01T08:17:31.230Z,3.22
2017-08-01T08:19:59.541Z,3.42
2017-08-01T08:22:27.807Z,2.92
2017-08-01T08:24:56.075Z,3.15
2017-08-01T08:27:24.379Z,2.85
2017-08-01T08:29:52.651Z,3.17
2017-08-01T08:32:21.695Z,2.95
2017-08-01T08:34:50.013Z,3.05
2017-08-01T08:37:19.052Z,3.35
2017-08-01T08:39:47.323Z,3.40
2017-08-01T08:42:15.635Z,3.00
2017-08-01T08:44:43.900Z,3.73
2017-08-01T08:47:12.176Z,3.43
2017-08-01T08:49:40.600Z,3.00
2017-08-01T08:52:08.891Z,3.20
2017-08-01T08:54:37.163Z,3.03
2017-08-01T08:57:05.468Z,3.30
2017-08-01T08:59:33.735Z,3.42
2017-08-01T09:02:02.780Z,3.80
2017-08-01T09:04:31.092Z,3.50
2017-08-01T09:07:00.115Z,3.60
2017-08-01T09:09:28.379Z,3.13
2017-08-01T09:11:56.763Z,3.63
2017-08-01T09:14:25.027Z,3.10
2017-08-01T09:16:53.292Z,3.00
2017-08-01T09:19:21.615Z,2.97
2017-08-01T09:21:49.884Z,3.60
2017-08-01T09:24:18.144Z,3.37
2017-08-01T09:26:46.513Z,4.13
2017-08-01T09:29:14.773Z,3.80
2017-08-01T09:31:43.032Z,3.40
2017-08-01T09:34:11.500Z,2.87
2017-08-01T09:36:39.767Z,3.40
2017-08-01T09:39:08.033Z,3.00
2017-08-01T09:41:36.328Z,3.00
2017-08-01T09:44:05.360Z,3.27
2017-08-01T09:46:33.620Z,3.97
2017-08-01T09:49:02.141Z,3.20
2017-08-01T09:51:31.167Z,3.03
2017-08-01T09:53:59.427Z,3.00
2017-08-01T09:56:27.743Z,2.93
2017-08-01T09:58:56.780Z,3.00
2017-08-01T10:01:25.051Z,4.00
2017-08-01T10:03:53.344Z,3.40
2017-08-01T10:06:22.380Z,3.20
2017-08-01T10:08:50.643Z,3.40
2017-08-01T10:11:18.947Z,2.87
2017-08-01T10:13:47.979Z,2.97
2017-08-01T10:16:16.255Z,3.53
2017-08-01T10:18:44.561Z,3.50
2017-08-01T10:21:12.829Z,3.87
2017-08-01T10:23:41.091Z,3.63
2017-08-01T10:26:09.392Z,3.03
2017-08-01T10:28:37.656Z,3.07
2017-08-01T10:31:05.919Z,3.10
2017-08-01T10:33:34.232Z,2.87
2017-08-01T10:36:02.532Z,3.30
2017-08-01T10:38:30.792Z,3.47
2017-08-01T10:40:59.105Z,4.03
2017-08-01T10:43:28.133Z,3.47
2017-08-01T10:45:56.400Z,4.23
2017-08-01T10:48:24.719Z,3.17
2017-08-01T10:50:53.005Z,3.90
2017-08-01T10:53:21.259Z,3.13
2017-08-01T10:55:49.567Z,3.80
2017-08-01T10:58:17.839Z,3.40
2017-08-01T11:00:46.108Z,3.60
2017-08-01T11:03:15.389Z,4.03
2017-08-01T11:05:44.424Z,3.37
2017-08-01T11:08:12.715Z,3.33
2017-08-01T11:10:41.046Z,3.37
2017-08-01T11:13:09.316Z,3.50
2017-08-01T11:15:37.572Z,2.97
2017-08-01T11:18:05.965Z,3.10
2017-08-01T11:20:34.232Z,4.07
2017-08-01T11:23:03.268Z,3.47
2017-08-01T11:25:31.581Z,3.50
2017-08-01T11:28:00.616Z,3.40
2017-08-01T11:30:28.879Z,4.43
2017-08-01T11:32:57.171Z,4.63
2017-08-01T11:35:26.207Z,4.00
2017-08-01T11:37:54.711Z,3.50
2017-08-01T11:40:23.183Z,3.53
2017-08-01T11:42:51.453Z,4.30
2017-08-01T11:45:20.496Z,3.87
2017-08-01T11:47:48.804Z,4.30
2017-08-01T11:50:17.077Z,3.60
2017-08-01T11:52:45.348Z,3.63
2017-08-01T11:55:13.671Z,3.30
2017-08-01T11:57:41.928Z,3.73
2017-08-01T12:00:10.197Z,3.60
2017-08-01T12:02:38.506Z,3.50
2017-08-01T12:05:06.780Z,3.83
2017-08-01T12:07:35.058Z,3.57
2017-08-01T12:10:03.359Z,3.70
2017-08-01T12:12:31.632Z,4.00
2017-08-01T12:14:59.904Z,4.33
2017-08-01T12:17:28.191Z,3.20
2017-08-01T12:19:56.452Z,5.70
2017-08-01T12:22:24.724Z,3.60
2017-08-01T12:24:53.217Z,4.00
2017-08-01T12:27:22.248Z,3.10
2017-08-01T12:29:50.516Z,3.60
2017-08-01T12:32:18.803Z,3.50
2017-08-01T12:34:47.074Z,3.60
2017-08-01T12:37:15.341Z,3.50
2017-08-01T12:39:44.507Z,3.50
2017-08-01T12:42:13.660Z,3.60
2017-08-01T12:44:41.925Z,3.30
2017-08-01T12:47:10.227Z,5.07
2017-08-01T12:49:39.264Z,3.97
2017-08-01T12:52:07.560Z,3.23
2017-08-01T12:54:35.941Z,4.00
2017-08-01T12:57:04.228Z,3.73
2017-08-01T12:59:32.497Z,4.03
2017-08-01T13:02:00.816Z,4.30
2017-08-01T13:04:29.843Z,3.77
2017-08-01T13:06:58.116Z,3.37
2017-08-01T13:09:26.420Z,3.77
2017-08-01T13:11:55.447Z,3.87
2017-08-01T13:14:23.712Z,3.40
2017-08-01T13:16:52.024Z,5.00
2017-08-01T13:19:21.064Z,4.03
2017-08-01T13:21:49.327Z,4.10
2017-08-01T13:24:17.636Z,4.00
2017-08-01T13:26:45.901Z,4.40
2017-08-01T13:29:14.168Z,3.60
2017-08-01T13:31:42.480Z,3.50
2017-08-01T13:34:10.748Z,2.93
2017-08-01T13:36:39.016Z,3.73
2017-08-01T13:39:07.321Z,3.53
2017-08-01T13:41:35.589Z,3.57
2017-08-01T13:44:03.852Z,4.03
2017-08-01T13:46:32.272Z,3.40
2017-08-01T13:49:01.305Z,3.10
2017-08-01T13:51:29.562Z,4.27
2017-08-01T13:53:58.127Z,4.30
2017-08-01T13:56:26.391Z,4.40
2017-08-01T13:58:54.667Z,4.03
2017-08-01T14:01:22.983Z,3.87
2017-08-01T14:03:52.012Z,3.57
2017-08-01T14:06:20.276Z,3.70
2017-08-01T14:08:48.584Z,3.40
2017-08-01T14:11:16.865Z,3.60
2017-08-01T14:13:45.123Z,3.50
2017-08-01T14:16:13.428Z,4.67
2017-08-01T14:18:41.695Z,4.00
2017-08-01T14:21:09.955Z,4.00
2017-08-01T14:23:38.276Z,4.20
2017-08-01T14:26:06.544Z,3.40
2017-08-01T14:28:34.816Z,3.77
2017-08-01T14:31:03.224Z,3.10
2017-08-01T14:33:32.259Z,3.70
2017-08-01T14:36:00.528Z,3.80
2017-08-01T14:38:28.836Z,3.03
2017-08-01T14:40:57.120Z,3.20
2017-08-01T14:43:25.392Z,3.27
2017-08-01T14:45:53.716Z,3.50
2017-08-01T14:48:22.752Z,3.53
2017-08-01T14:50:51.016Z,3.30
2017-08-01T14:53:19.335Z,3.30
2017-08-01T14:55:47.605Z,3.70
2017-08-01T14:58:15.896Z,3.60
2017-08-01T15:00:44.215Z,2.87
2017-08-01T15:03:12.478Z,3.30
2017-08-01T15:05:40.756Z,2.70
2017-08-01T15:08:09.054Z,3.80
2017-08-01T15:10:37.325Z,3.63
2017-08-01T15:13:05.616Z,2.57
2017-08-01T15:15:34.817Z,3.23
2017-08-01T15:18:03.076Z,3.30
2017-08-01T15:20:31.343Z,4.03
2017-08-01T15:23:00.068Z,3.40
2017-08-01T15:25:28.349Z,3.63
2017-08-01T15:27:57.388Z,4.10
2017-08-01T15:30:25.692Z,2.77
2017-08-01T15:32:54.718Z,2.77
2017-08-01T15:35:22.984Z,3.57
2017-08-01T15:37:51.278Z,2.40
2017-08-01T15:40:20.327Z,3.93
2017-08-01T15:42:48.591Z,2.63
2017-08-01T15:45:16.902Z,2.57
2017-08-01T15:47:45.179Z,2.93
2017-08-01T15:50:13.452Z,3.47
2017-08-01T15:52:41.769Z,2.90
2017-08-01T15:55:10.811Z,3.87
2017-08-01T15:57:39.084Z,3.27
2017-08-01T16:00:07.397Z,3.90
2017-08-01T16:02:35.656Z,3.43
2017-08-01T16:05:03.928Z,3.80
2017-08-01T16:07:32.243Z,3.13
2017-08-01T16:10:00.512Z,3.40
2017-08-01T16:12:29.544Z,3.70
2017-08-01T16:14:57.852Z,3.10
2017-08-01T16:17:26.888Z,2.50
2017-08-01T16:19:55.152Z,2.37
2017-08-01T16:22:23.464Z,2.73
2017-08-01T16:24:52.500Z,3.53
2017-08-01T16:27:20.759Z,3.00
2017-08-01T16:29:49.072Z,3.53
2017-08-01T16:32:17.340Z,3.13
2017-08-01T16:34:45.989Z,2.63
2017-08-01T16:37:14.276Z,3.10
2017-08-01T16:39:42.596Z,3.00
2017-08-01T16:42:10.864Z,2.30
2017-08-01T16:44:39.180Z,2.87
2017-08-01T16:47:07.443Z,3.10
2017-08-01T16:49:35.703Z,2.67
2017-08-01T16:52:04.116Z,2.57
2017-08-01T16:54:33.148Z,2.77
2017-08-01T16:57:01.420Z,3.73
2017-08-01T16:59:29.893Z,2.80
2017-08-01T17:01:58.165Z,3.10
2017-08-01T17:04:26.437Z,2.43
2017-08-01T17:06:54.760Z,2.80
2017-08-01T17:09:23.023Z,3.03
2017-08-01T17:11:51.287Z,2.40
2017-08-01T17:14:19.591Z,2.77
2017-08-01T17:16:48.642Z,2.20
2017-08-01T17:19:17.241Z,2.93
2017-08-01T17:21:46.322Z,2.90
2017-08-01T17:24:15.348Z,3.20
2017-08-01T17:26:43.615Z,3.13
2017-08-01T17:29:11.983Z,3.30
2017-08-01T17:31:40.255Z,3.07
2017-08-01T17:34:08.519Z,2.90
2017-08-01T17:36:36.824Z,2.40
2017-08-01T17:39:05.091Z,2.90
2017-08-01T17:41:33.347Z,3.03
2017-08-01T17:44:01.652Z,2.10
2017-08-01T17:46:29.924Z,2.50
2017-08-01T17:48:58.200Z,2.97
2017-08-01T17:51:26.503Z,2.33
2017-08-01T17:53:54.781Z,2.20
2017-08-01T17:56:23.058Z,2.53
2017-08-01T17:58:51.360Z,2.50
2017-08-01T18:01:20.409Z,2.30
2017-08-01T18:03:48.680Z,2.75
2017-08-01T18:06:17.000Z,2.83
2017-08-01T18:08:45.275Z,2.70
2017-08-01T18:11:13.552Z,2.70
2017-08-01T18:13:41.843Z,2.75
2017-08-01T18:16:10.880Z,4.30
2017-08-01T18:18:39.159Z,2.20
2017-08-01T18:21:07.456Z,2.70
2017-08-01T18:23:35.732Z,2.10
2017-08-01T18:26:04.011Z,2.00
2017-08-01T18:28:32.308Z,2.40
2017-08-01T18:31:00.579Z,2.55
2017-08-01T18:33:29.626Z,2.20
2017-08-01T18:35:57.928Z,2.75
2017-08-01T18:38:26.976Z,3.00
2017-08-01T18:40:55.238Z,2.42
2017-08-01T18:43:23.536Z,2.65
2017-08-01T18:45:52.576Z,3.25
2017-08-01T18:48:20.835Z,2.30
2017-08-01T18:50:49.143Z,2.12
2017-08-01T18:53:18.179Z,2.95
2017-08-01T18:55:46.447Z,2.85
2017-08-01T18:58:14.748Z,3.12
2017-08-01T19:00:43.784Z,2.90
2017-08-01T19:03:12.068Z,2.75
2017-08-01T19:05:40.358Z,3.10
2017-08-01T19:08:09.392Z,3.33
2017-08-01T19:10:37.658Z,2.50
2017-08-01T19:13:05.976Z,2.50
2017-08-01T19:15:34.251Z,2.47
2017-08-01T19:18:02.520Z,2.80
2017-08-01T19:20:31.951Z,2.70
2017-08-01T19:23:00.991Z,2.40
2017-08-01T19:25:29.260Z,2.40
2017-08-01T19:27:57.576Z,2.85
2017-08-01T19:30:25.852Z,3.22
2017-08-01T19:32:54.124Z,3.03
2017-08-01T19:35:22.587Z,3.83
2017-08-01T19:37:50.861Z,2.70
2017-08-01T19:40:19.141Z,2.78
2017-08-01T19:42:47.447Z,3.08
2017-08-01T19:45:16.483Z,3.30
2017-08-01T19:47:44.755Z,3.40
2017-08-01T19:50:13.051Z,3.58
2017-08-01T19:52:41.321Z,3.85
2017-08-01T19:55:09.884Z,3.40
2017-08-01T19:57:38.194Z,4.32
2017-08-01T20:00:06.459Z,4.25
2017-08-01T20:02:34.732Z,3.78
2017-08-01T20:05:03.074Z,4.03
2017-08-01T20:07:31.327Z,4.60
2017-08-01T20:09:59.596Z,4.45
2017-08-01T20:12:27.896Z,4.43
2017-08-01T20:14:56.927Z,4.35
2017-08-01T20:17:25.201Z,4.18
2017-08-01T20:19:53.521Z,4.05
2017-08-01T20:22:21.806Z,4.10
2017-08-01T20:24:50.081Z,3.80
2017-08-01T20:27:18.388Z,3.85
2017-08-01T20:29:47.419Z,4.37
2017-08-01T20:32:15.914Z,4.00
2017-08-01T20:34:44.229Z,3.28
2017-08-01T20:37:12.520Z,3.75
2017-08-01T20:39:41.552Z,3.45
2017-08-01T20:42:09.868Z,3.35
2017-08-01T20:44:38.131Z,2.95
2017-08-01T20:47:06.400Z,3.60
2017-08-01T20:49:34.716Z,4.00
2017-08-01T20:52:02.992Z,3.87
2017-08-01T20:54:31.264Z,3.80
2017-08-01T20:57:00.030Z,4.15
2017-08-01T20:59:28.312Z,4.72
2017-08-01T21:01:56.630Z,5.07
2017-08-01T21:04:24.941Z,4.90
2017-08-01T21:06:53.199Z,4.20
2017-08-01T21:09:21.480Z,3.97
2017-08-01T21:11:50.547Z,5.87
2017-08-01T21:14:18.827Z,4.97
2017-08-01T21:16:47.128Z,4.28
2017-08-01T21:19:15.766Z,4.50
2017-08-01T21:21:44.798Z,3.90
2017-08-01T21:24:13.077Z,4.95
2017-08-01T21:26:41.404Z,4.95
2017-08-01T21:29:09.678Z,4.47
2017-08-01T21:31:37.952Z,4.25
2017-08-01T21:36:43.707Z,4.68
2017-08-01T21:39:13.012Z,4.85
2017-08-01T21:41:41.289Z,3.87
2017-08-01T21:44:09.555Z,5.07
2017-08-01T21:46:38.104Z,5.53
2017-08-01T21:49:06.372Z,4.07
2017-08-01T21:51:34.671Z,5.35
2017-08-01T21:54:04.226Z,4.90
2017-08-01T21:56:32.539Z,5.95
2017-08-01T21:59:00.805Z,5.30
2017-08-01T22:01:29.127Z,5.93
2017-08-01T22:03:57.396Z,6.90
2017-08-01T22:06:25.667Z,5.32
2017-08-01T22:08:53.987Z,5.50
2017-08-01T22:11:22.256Z,5.03
2017-08-01T22:13:50.527Z,6.18
2017-08-01T22:16:18.824Z,5.68
2017-08-01T22:18:47.091Z,5.82
2017-08-01T22:21:15.632Z,5.07
2017-08-01T22:23:43.935Z,4.65
2017-08-01T22:26:12.199Z,4.93
2017-08-01T22:28:40.467Z,4.85
2017-08-01T22:31:09.528Z,4.62
2017-08-01T22:33:37.800Z,4.82
2017-08-01T22:36:06.059Z,7.20
2017-08-01T22:38:34.367Z,5.10
2017-08-01T22:41:02.641Z,4.85
2017-08-01T22:43:30.897Z,4.20
2017-08-01T22:45:59.308Z,5.40
2017-08-01T22:48:27.574Z,4.85
2017-08-01T22:50:56.604Z,5.03
2017-08-01T22:53:24.920Z,5.40
2017-08-01T22:55:53.947Z,5.40
2017-08-01T22:58:22.215Z,5.35
2017-08-01T23:00:50.532Z,6.30
2017-08-01T23:03:19.567Z,5.70
2017-08-01T23:05:47.831Z,5.97
2017-08-01T23:08:16.392Z,5.60
2017-08-01T23:10:45.667Z,6.72
2017-08-01T23:13:13.924Z,5.20
2017-08-01T23:15:42.233Z,5.35
2017-08-01T23:18:11.256Z,5.57
2017-08-01T23:20:39.535Z,5.95
2017-08-01T23:23:07.827Z,5.82
2017-08-01T23:25:36.867Z,5.03
2017-08-01T23:28:05.139Z,5.40
2017-08-01T23:30:33.464Z,5.53
2017-08-01T23:33:02.488Z,5.50
2017-08-01T23:35:30.748Z,5.55
2017-08-01T23:37:59.069Z,6.40
2017-08-01T23:40:27.331Z,6.75
2017-08-01T23:42:55.599Z,7.03
2017-08-01T23:45:23.904Z,7.85
2017-08-01T23:47:52.289Z,6.60
2017-08-01T23:50:21.345Z,7.30
2017-08-01T23:52:49.656Z,7.47
2017-08-01T23:55:18.284Z,6.78
2017-08-01T23:57:46.563Z,7.93
